createdAt,value
2019-03-19T00:02:23.887Z,1.92
2019-03-19T00:04:51.603Z,1.90
2019-03-19T00:07:19.418Z,2.00
2019-03-19T00:09:47.132Z,1.82
2019-03-19T00:12:14.959Z,2.10
2019-03-19T00:14:42.901Z,2.37
2019-03-19T00:17:10.575Z,1.95
2019-03-19T00:19:38.196Z,2.02
2019-03-19T00:22:05.960Z,2.42
2019-03-19T00:24:33.646Z,2.60
2019-03-19T00:27:01.308Z,2.40
2019-03-19T00:29:29.014Z,2.87
2019-03-19T00:31:56.647Z,2.20
2019-03-19T00:34:24.300Z,2.40
2019-03-19T00:36:52.083Z,2.70
2019-03-19T00:39:19.768Z,2.60
2019-03-19T00:41:47.419Z,2.37
2019-03-19T00:44:15.342Z,2.83
2019-03-19T00:46:43.238Z,2.58
2019-03-19T00:49:11.930Z,3.08
2019-03-19T00:51:39.916Z,2.70
2019-03-19T00:54:08.512Z,3.00
2019-03-19T00:56:37.226Z,2.72
2019-03-19T00:59:04.988Z,2.62
2019-03-19T01:01:32.667Z,2.70
2019-03-19T01:04:00.293Z,2.70
2019-03-19T01:06:28.039Z,3.05
2019-03-19T01:08:55.776Z,3.10
2019-03-19T01:11:23.385Z,3.00
2019-03-19T01:13:51.960Z,3.65
2019-03-19T01:16:19.618Z,3.40
2019-03-19T01:18:47.613Z,3.42
2019-03-19T01:21:15.681Z,3.25
2019-03-19T01:23:43.412Z,3.65
2019-03-19T01:26:11.141Z,3.70
2019-03-19T01:28:38.905Z,3.77
2019-03-19T01:31:06.560Z,3.98
2019-03-19T01:33:34.203Z,4.30
2019-03-19T01:36:01.964Z,4.15
2019-03-19T01:38:29.751Z,4.70
2019-03-19T01:40:57.420Z,4.15
2019-03-19T01:43:26.547Z,4.65
2019-03-19T01:45:54.352Z,4.12
2019-03-19T01:48:22.050Z,4.55
2019-03-19T01:50:49.904Z,4.50
2019-03-19T01:53:17.544Z,4.70
2019-03-19T01:55:45.309Z,4.42
2019-03-19T01:58:13.245Z,4.75
2019-03-19T02:00:40.891Z,4.92
2019-03-19T02:03:08.487Z,5.00
2019-03-19T02:05:36.432Z,4.72
2019-03-19T02:08:04.153Z,4.97
2019-03-19T02:10:31.997Z,4.85
2019-03-19T02:12:59.563Z,4.47
2019-03-19T02:15:27.235Z,5.45
2019-03-19T02:17:54.875Z,4.87
2019-03-19T02:20:22.697Z,4.90
2019-03-19T02:22:50.489Z,5.15
2019-03-19T02:25:18.243Z,5.12
2019-03-19T02:27:45.986Z,5.75
2019-03-19T02:30:13.789Z,5.00
2019-03-19T02:32:41.603Z,5.37
2019-03-19T02:35:09.266Z,4.75
2019-03-19T02:37:38.136Z,5.03
2019-03-19T02:40:06.086Z,5.87
2019-03-19T02:42:34.073Z,5.42
2019-03-19T02:45:01.793Z,5.12
2019-03-19T02:47:29.672Z,4.45
2019-03-19T02:49:57.566Z,5.28
2019-03-19T02:52:25.256Z,4.87
2019-03-19T02:54:53.011Z,5.35
2019-03-19T02:57:20.812Z,5.60
2019-03-19T02:59:48.606Z,5.50
2019-03-19T03:02:16.269Z,5.08
2019-03-19T03:04:44.248Z,5.00
2019-03-19T03:07:11.941Z,5.40
2019-03-19T03:09:39.575Z,5.33
2019-03-19T03:12:07.543Z,5.42
2019-03-19T03:14:35.184Z,4.92
2019-03-19T03:17:03.271Z,5.62
2019-03-19T03:19:30.953Z,4.92
2019-03-19T03:21:58.582Z,5.42
2019-03-19T03:24:26.305Z,5.72
2019-03-19T03:26:54.265Z,5.08
2019-03-19T03:29:21.948Z,5.67
2019-03-19T03:31:49.668Z,5.40
2019-03-19T03:34:17.453Z,5.55
2019-03-19T03:36:45.081Z,5.37
2019-03-19T03:39:12.747Z,5.22
2019-03-19T03:41:40.634Z,6.08
2019-03-19T03:44:08.429Z,5.20
2019-03-19T03:46:36.065Z,5.17
2019-03-19T03:49:03.858Z,5.20
2019-03-19T03:51:31.588Z,4.75
2019-03-19T03:53:59.227Z,4.92
2019-03-19T03:56:26.951Z,4.55
2019-03-19T03:59:00.678Z,4.72
2019-03-19T04:01:24.397Z,4.35
2019-03-19T04:03:52.429Z,4.78
2019-03-19T04:06:20.104Z,4.00
2019-03-19T04:08:47.842Z,4.03
2019-03-19T04:11:15.568Z,4.10
2019-03-19T04:13:43.225Z,4.67
2019-03-19T04:16:10.794Z,4.60
2019-03-19T04:18:38.414Z,5.00
2019-03-19T04:21:06.029Z,4.65
2019-03-19T04:23:33.755Z,4.53
2019-03-19T04:26:01.574Z,4.92
2019-03-19T04:28:30.178Z,5.40
2019-03-19T04:30:57.896Z,5.25
2019-03-19T04:33:25.774Z,5.12
2019-03-19T04:35:53.427Z,5.03
2019-03-19T04:38:21.036Z,4.83
2019-03-19T04:40:49.710Z,4.67
2019-03-19T04:43:18.157Z,5.87
2019-03-19T04:45:46.105Z,5.30
2019-03-19T04:48:13.972Z,5.97
2019-03-19T04:50:41.484Z,6.20
2019-03-19T04:53:10.191Z,6.00
2019-03-19T04:55:37.928Z,5.87
2019-03-19T04:58:05.539Z,7.08
2019-03-19T05:00:33.160Z,7.58
2019-03-19T05:03:01.086Z,7.50
2019-03-19T05:05:28.815Z,7.40
2019-03-19T05:07:56.520Z,7.10
2019-03-19T05:10:24.277Z,7.15
2019-03-19T05:12:52.018Z,7.25
2019-03-19T05:15:19.654Z,7.00
2019-03-19T05:17:47.418Z,7.50
2019-03-19T05:20:15.102Z,7.47
2019-03-19T05:22:42.841Z,7.47
2019-03-19T05:25:10.983Z,7.33
2019-03-19T05:27:38.794Z,8.08
2019-03-19T05:30:07.780Z,7.97
2019-03-19T05:32:35.547Z,7.70
2019-03-19T05:35:03.351Z,6.97
2019-03-19T05:37:31.003Z,7.42
2019-03-19T05:39:58.735Z,7.87
2019-03-19T05:42:26.511Z,7.70
2019-03-19T05:44:54.136Z,8.40
2019-03-19T05:47:21.815Z,9.75
2019-03-19T05:49:49.472Z,9.98
2019-03-19T05:52:17.095Z,12.63
2019-03-19T05:54:44.760Z,11.75
2019-03-19T05:57:12.485Z,12.80
2019-03-19T05:59:40.184Z,10.88
2019-03-19T06:02:10.121Z,10.72
2019-03-19T06:04:37.973Z,9.15
2019-03-19T06:07:05.760Z,9.18
2019-03-19T06:09:33.585Z,8.08
2019-03-19T06:12:01.306Z,9.85
2019-03-19T06:14:29.038Z,9.00
2019-03-19T06:16:56.913Z,8.68
2019-03-19T06:19:24.619Z,9.15
2019-03-19T06:21:52.328Z,8.78
2019-03-19T06:24:20.093Z,9.53
2019-03-19T06:26:47.751Z,9.33
2019-03-19T06:29:15.620Z,9.20
2019-03-19T06:31:43.507Z,9.63
2019-03-19T06:34:11.168Z,9.45
2019-03-19T06:36:39.860Z,8.50
2019-03-19T06:39:11.464Z,10.70
2019-03-19T06:41:39.128Z,10.53
2019-03-19T06:44:06.791Z,11.45
2019-03-19T06:46:34.572Z,10.98
2019-03-19T06:49:02.171Z,10.32
2019-03-19T06:51:29.796Z,10.30
2019-03-19T06:53:57.797Z,10.45
2019-03-19T06:56:25.432Z,10.05
2019-03-19T06:58:53.175Z,9.88
2019-03-19T07:01:20.995Z,9.50
2019-03-19T07:03:50.111Z,10.10
2019-03-19T07:06:17.760Z,10.15
2019-03-19T07:08:45.594Z,10.43
2019-03-19T07:11:13.507Z,9.98
2019-03-19T07:13:41.516Z,8.53
2019-03-19T07:16:09.519Z,8.43
2019-03-19T07:18:37.247Z,9.70
2019-03-19T07:21:04.933Z,9.63
2019-03-19T07:23:32.687Z,9.45
2019-03-19T07:26:00.710Z,9.75
2019-03-19T07:28:28.363Z,9.28
2019-03-19T07:30:56.060Z,9.55
2019-03-19T07:33:23.711Z,8.30
2019-03-19T07:35:51.320Z,5.75
2019-03-19T07:38:19.530Z,5.53
2019-03-19T07:40:47.280Z,5.03
2019-03-19T07:43:16.083Z,4.80
2019-03-19T07:45:44.115Z,5.65
2019-03-19T07:48:12.048Z,4.30
2019-03-19T07:50:39.731Z,5.12
2019-03-19T07:53:07.440Z,4.78
2019-03-19T07:55:35.284Z,5.72
2019-03-19T07:58:03.052Z,4.67
2019-03-19T08:00:30.908Z,5.37
2019-03-19T08:02:58.620Z,5.28
2019-03-19T08:05:33.067Z,4.28
2019-03-19T08:07:56.471Z,4.30
2019-03-19T08:10:24.097Z,3.50
2019-03-19T08:12:51.850Z,4.28
2019-03-19T08:15:19.728Z,3.83
2019-03-19T08:17:47.516Z,3.50
2019-03-19T08:20:16.692Z,3.33
2019-03-19T08:22:44.663Z,3.83
2019-03-19T08:25:12.407Z,4.10
2019-03-19T08:27:40.081Z,3.47
2019-03-19T08:30:10.011Z,3.92
2019-03-19T08:32:37.871Z,4.50
2019-03-19T08:35:05.900Z,4.33
2019-03-19T08:37:33.563Z,3.40
2019-03-19T08:40:01.301Z,3.62
2019-03-19T08:42:29.014Z,2.98
2019-03-19T08:45:02.773Z,3.08
2019-03-19T08:47:30.476Z,3.05
2019-03-19T08:49:58.122Z,2.62
2019-03-19T08:52:26.234Z,3.15
2019-03-19T08:54:53.901Z,2.77
2019-03-19T08:57:23.474Z,2.75
2019-03-19T08:59:51.196Z,2.77
2019-03-19T09:02:19.020Z,3.37
2019-03-19T09:04:47.082Z,3.00
2019-03-19T09:07:14.889Z,2.72
2019-03-19T09:09:45.786Z,3.02
2019-03-19T09:12:13.485Z,2.60
2019-03-19T09:14:41.362Z,4.33
2019-03-19T09:17:10.642Z,8.43
2019-03-19T09:19:39.893Z,1.82
2019-03-19T09:22:08.321Z,2.05
2019-03-19T09:24:36.029Z,3.47
2019-03-19T09:27:03.693Z,1.82
2019-03-19T09:29:31.646Z,3.05
2019-03-19T09:31:59.324Z,2.98
2019-03-19T09:34:26.957Z,12.50
2019-03-19T09:36:57.640Z,4.72
2019-03-19T09:39:24.366Z,2.60
2019-03-19T09:41:52.351Z,2.50
2019-03-19T09:44:21.448Z,2.40
2019-03-19T09:46:49.127Z,2.65
2019-03-19T09:49:16.910Z,2.50
2019-03-19T09:51:45.278Z,2.42
2019-03-19T09:54:12.898Z,2.42
2019-03-19T09:56:40.657Z,2.25
2019-03-19T09:59:08.464Z,2.02
2019-03-19T10:01:36.146Z,1.98
2019-03-19T10:04:03.904Z,2.10
2019-03-19T10:06:31.841Z,1.80
2019-03-19T10:09:00.506Z,2.55
2019-03-19T10:11:28.261Z,1.90
2019-03-19T10:13:56.170Z,2.08
2019-03-19T10:16:23.917Z,2.52
2019-03-19T10:18:51.639Z,2.02
2019-03-19T10:21:20.442Z,2.02
2019-03-19T10:23:48.344Z,2.20
2019-03-19T10:26:16.484Z,1.95
2019-03-19T10:28:44.172Z,1.90
2019-03-19T10:31:11.878Z,2.05
2019-03-19T10:33:39.555Z,2.20
2019-03-19T10:36:10.023Z,2.17
2019-03-19T10:38:37.684Z,1.90
2019-03-19T10:41:06.254Z,2.42
2019-03-19T10:43:34.297Z,1.80
2019-03-19T10:46:02.107Z,1.55
2019-03-19T10:48:30.951Z,2.33
2019-03-19T10:50:58.711Z,2.37
2019-03-19T10:53:26.480Z,2.05
2019-03-19T10:55:54.241Z,2.22
2019-03-19T10:58:21.880Z,1.80
2019-03-19T11:00:49.737Z,1.70
2019-03-19T11:03:17.415Z,2.37
2019-03-19T11:05:45.077Z,1.82
2019-03-19T11:08:12.865Z,1.90
2019-03-19T11:10:41.876Z,2.27
2019-03-19T11:13:09.529Z,1.92
2019-03-19T11:15:37.290Z,1.50
2019-03-19T11:18:05.299Z,2.33
2019-03-19T11:20:33.021Z,2.10
2019-03-19T11:23:00.832Z,2.25
2019-03-19T11:25:28.727Z,2.00
2019-03-19T11:27:56.524Z,1.85
2019-03-19T11:30:24.425Z,2.42
2019-03-19T11:32:52.167Z,1.67
2019-03-19T11:35:20.284Z,2.05
2019-03-19T11:37:48.216Z,1.90
2019-03-19T11:40:16.140Z,2.30
2019-03-19T11:42:44.045Z,1.92
2019-03-19T11:45:12.636Z,1.87
2019-03-19T11:47:40.318Z,2.00
2019-03-19T11:50:19.393Z,2.80
2019-03-19T11:52:47.070Z,1.45
2019-03-19T11:55:15.153Z,1.55
2019-03-19T11:57:42.888Z,1.37
2019-03-19T12:00:14.569Z,1.50
2019-03-19T12:02:44.600Z,1.72
2019-03-19T12:05:12.445Z,1.82
2019-03-19T12:07:40.084Z,1.62
2019-03-19T12:10:11.268Z,2.12
2019-03-19T12:12:38.968Z,2.00
2019-03-19T12:15:07.343Z,1.70
2019-03-19T12:17:35.126Z,1.70
2019-03-19T12:20:03.195Z,1.72
2019-03-19T12:22:31.028Z,1.82
2019-03-19T12:24:59.597Z,1.85
2019-03-19T12:27:27.302Z,1.60
2019-03-19T12:29:55.133Z,1.70
2019-03-19T12:32:23.050Z,1.85
2019-03-19T12:34:50.617Z,1.37
2019-03-19T12:37:18.325Z,2.00
2019-03-19T12:39:46.210Z,1.90
2019-03-19T12:42:14.949Z,2.08
2019-03-19T12:44:42.648Z,1.90
2019-03-19T12:47:12.818Z,2.00
2019-03-19T12:49:40.519Z,2.00
2019-03-19T12:52:08.089Z,1.70
2019-03-19T12:54:37.822Z,2.70
2019-03-19T12:57:05.480Z,2.85
2019-03-19T12:59:33.092Z,2.40
2019-03-19T13:02:04.027Z,1.90
2019-03-19T13:04:32.060Z,1.90
2019-03-19T13:07:00.112Z,2.02
2019-03-19T13:09:27.913Z,2.35
2019-03-19T13:11:55.894Z,2.08
2019-03-19T13:14:23.864Z,1.82
2019-03-19T13:16:51.494Z,1.87
2019-03-19T13:19:19.141Z,2.10
2019-03-19T13:21:46.998Z,1.98
2019-03-19T13:24:14.602Z,1.98
2019-03-19T13:26:42.657Z,1.70
2019-03-19T13:29:10.490Z,1.75
2019-03-19T13:31:38.107Z,2.10
2019-03-19T13:34:05.881Z,2.20
2019-03-19T13:36:33.735Z,2.42
2019-03-19T13:39:01.403Z,2.15
2019-03-19T13:41:31.008Z,2.67
2019-03-19T13:43:58.931Z,1.95
2019-03-19T13:46:26.646Z,2.22
2019-03-19T13:48:54.277Z,1.95
2019-03-19T13:51:23.215Z,2.00
2019-03-19T13:53:50.952Z,2.00
2019-03-19T13:56:18.715Z,2.35
2019-03-19T13:58:46.534Z,2.40
2019-03-19T14:01:14.290Z,2.45
2019-03-19T14:03:42.041Z,2.27
2019-03-19T14:06:09.884Z,1.92
2019-03-19T14:08:37.669Z,2.27
2019-03-19T14:11:06.986Z,2.40
2019-03-19T14:13:34.829Z,2.10
2019-03-19T14:16:02.464Z,2.10
2019-03-19T14:18:30.304Z,2.25
2019-03-19T14:20:58.407Z,2.20
2019-03-19T14:23:26.063Z,2.20
2019-03-19T14:25:53.883Z,2.05
2019-03-19T14:28:21.601Z,2.17
2019-03-19T14:30:49.449Z,2.00
2019-03-19T14:33:17.228Z,2.12
2019-03-19T14:35:44.908Z,2.22
2019-03-19T14:38:13.562Z,2.62
2019-03-19T14:40:41.410Z,2.52
2019-03-19T14:43:09.228Z,2.20
2019-03-19T14:45:37.122Z,2.52
2019-03-19T14:48:06.143Z,2.70
2019-03-19T14:50:34.044Z,2.30
2019-03-19T14:53:01.681Z,3.20
2019-03-19T14:55:29.547Z,2.50
2019-03-19T14:57:57.263Z,2.22
2019-03-19T15:00:26.196Z,2.12
2019-03-19T15:02:55.732Z,2.50
2019-03-19T15:05:23.660Z,2.40
2019-03-19T15:07:51.339Z,2.60
2019-03-19T15:10:19.224Z,1.90
2019-03-19T15:12:48.592Z,1.98
2019-03-19T15:15:16.331Z,1.92
2019-03-19T15:17:44.427Z,2.30
2019-03-19T15:20:15.164Z,2.30
2019-03-19T15:22:47.288Z,2.35
2019-03-19T15:25:15.088Z,2.40
2019-03-19T15:27:42.810Z,2.42
2019-03-19T15:30:11.105Z,2.65
2019-03-19T15:32:42.085Z,2.20
2019-03-19T15:35:10.268Z,2.22
2019-03-19T15:37:38.171Z,2.92
2019-03-19T15:40:07.703Z,2.40
2019-03-19T15:42:35.419Z,2.45
2019-03-19T15:45:04.359Z,2.02
2019-03-19T15:47:33.276Z,2.20
2019-03-19T15:50:00.952Z,1.98
2019-03-19T15:52:28.695Z,2.15
2019-03-19T15:54:56.451Z,1.90
2019-03-19T15:57:24.114Z,2.15
2019-03-19T15:59:52.026Z,2.40
2019-03-19T16:02:19.981Z,2.35
2019-03-19T16:04:47.857Z,1.95
2019-03-19T16:07:15.615Z,2.12
2019-03-19T16:09:43.881Z,2.40
2019-03-19T16:12:12.200Z,4.08
2019-03-19T16:14:39.824Z,2.22
2019-03-19T16:17:07.616Z,2.35
2019-03-19T16:19:35.292Z,2.05
2019-03-19T16:22:02.920Z,1.90
2019-03-19T16:24:31.260Z,2.58
2019-03-19T16:26:59.140Z,2.10
2019-03-19T16:29:26.849Z,2.00
2019-03-19T16:31:54.723Z,1.98
2019-03-19T16:34:24.567Z,2.02
2019-03-19T16:36:52.274Z,2.00
2019-03-19T16:39:19.936Z,2.30
2019-03-19T16:41:47.619Z,2.10
2019-03-19T16:44:15.661Z,1.98
2019-03-19T16:46:43.348Z,2.02
2019-03-19T16:49:11.355Z,2.17
2019-03-19T16:51:39.394Z,1.95
2019-03-19T16:54:07.075Z,1.80
2019-03-19T16:56:34.716Z,2.20
2019-03-19T16:59:02.502Z,2.40
2019-03-19T17:01:30.304Z,2.17
2019-03-19T17:03:58.121Z,2.58
2019-03-19T17:06:26.167Z,2.15
2019-03-19T17:08:53.870Z,2.62
2019-03-19T17:11:21.552Z,2.22
2019-03-19T17:13:49.397Z,2.20
2019-03-19T17:16:17.203Z,2.10
2019-03-19T17:18:44.950Z,1.45
2019-03-19T17:21:12.920Z,1.95
2019-03-19T17:23:40.620Z,1.85
2019-03-19T17:26:08.342Z,1.95
2019-03-19T17:28:36.127Z,2.08
2019-03-19T17:31:04.811Z,2.85
2019-03-19T17:33:32.466Z,2.52
2019-03-19T17:36:00.266Z,2.27
2019-03-19T17:38:28.009Z,2.65
2019-03-19T17:40:55.817Z,2.70
2019-03-19T17:43:24.995Z,1.80
2019-03-19T17:45:52.759Z,1.90
2019-03-19T17:48:20.792Z,1.80
2019-03-19T17:50:49.430Z,2.47
2019-03-19T17:53:17.245Z,1.60
2019-03-19T17:55:45.228Z,3.40
2019-03-19T17:58:13.185Z,2.10
2019-03-19T18:00:43.684Z,2.65
2019-03-19T18:03:11.535Z,2.05
2019-03-19T18:05:39.201Z,2.20
2019-03-19T18:08:07.064Z,2.33
2019-03-19T18:10:34.724Z,2.50
2019-03-19T18:13:02.588Z,1.80
2019-03-19T18:15:30.300Z,2.10
2019-03-19T18:17:58.059Z,2.00
2019-03-19T18:20:26.249Z,3.02
2019-03-19T18:22:54.085Z,3.47
2019-03-19T18:25:21.975Z,2.55
2019-03-19T18:27:49.934Z,2.02
2019-03-19T18:30:17.721Z,2.12
2019-03-19T18:32:47.475Z,2.02
2019-03-19T18:35:15.185Z,2.02
2019-03-19T18:37:43.926Z,2.20
2019-03-19T18:40:11.891Z,1.62
2019-03-19T18:42:39.576Z,2.00
2019-03-19T18:45:08.426Z,2.55
2019-03-19T18:47:36.130Z,2.33
2019-03-19T18:50:05.194Z,2.72
2019-03-19T18:52:33.210Z,2.55
2019-03-19T18:55:00.880Z,3.70
2019-03-19T18:57:28.768Z,5.12
2019-03-19T18:59:56.537Z,3.50
2019-03-19T19:02:24.346Z,2.55
2019-03-19T19:04:52.040Z,3.10
2019-03-19T19:07:22.935Z,3.10
2019-03-19T19:09:51.472Z,2.47
2019-03-19T19:12:19.473Z,2.90
2019-03-19T19:14:47.410Z,2.62
2019-03-19T19:17:15.082Z,3.20
2019-03-19T19:19:42.824Z,2.75
2019-03-19T19:22:10.514Z,2.50
2019-03-19T19:24:38.426Z,2.45
2019-03-19T19:27:06.068Z,2.50
2019-03-19T19:29:34.007Z,2.58
2019-03-19T19:32:01.971Z,3.27
2019-03-19T19:34:30.672Z,2.77
2019-03-19T19:36:58.474Z,2.15
2019-03-19T19:39:26.600Z,2.60
2019-03-19T19:41:54.364Z,2.47
2019-03-19T19:44:22.245Z,2.37
2019-03-19T19:46:50.000Z,7.12
2019-03-19T19:49:17.770Z,8.88
2019-03-19T19:51:45.579Z,4.62
2019-03-19T19:54:13.461Z,2.70
2019-03-19T19:56:41.233Z,3.00
2019-03-19T19:59:08.998Z,2.72
2019-03-19T20:01:37.035Z,3.00
2019-03-19T20:04:04.685Z,2.80
2019-03-19T20:06:32.416Z,2.45
2019-03-19T20:09:00.260Z,2.42
2019-03-19T20:11:28.151Z,2.30
2019-03-19T20:13:55.915Z,2.60
2019-03-19T20:16:23.690Z,2.77
2019-03-19T20:18:51.394Z,2.95
2019-03-19T20:21:19.189Z,2.98
2019-03-19T20:23:47.248Z,3.00
2019-03-19T20:26:14.937Z,2.50
2019-03-19T20:28:44.033Z,2.33
2019-03-19T20:31:13.147Z,2.85
2019-03-19T20:33:43.402Z,2.50
2019-03-19T20:36:11.389Z,1.92
2019-03-19T20:38:39.172Z,2.30
2019-03-19T20:41:07.002Z,2.30
2019-03-19T20:43:35.539Z,2.20
2019-03-19T20:46:03.796Z,2.25
2019-03-19T20:48:31.631Z,2.12
2019-03-19T20:50:59.500Z,2.35
2019-03-19T20:53:27.580Z,2.83
2019-03-19T20:55:55.864Z,2.27
2019-03-19T20:58:23.659Z,2.60
2019-03-19T21:00:51.354Z,2.47
2019-03-19T21:03:19.006Z,2.27
2019-03-19T21:05:47.272Z,2.30
2019-03-19T21:08:15.260Z,2.58
2019-03-19T21:10:42.909Z,2.47
2019-03-19T21:13:10.630Z,2.30
2019-03-19T21:15:38.464Z,2.52
2019-03-19T21:18:07.628Z,2.60
2019-03-19T21:20:36.575Z,2.45
2019-03-19T21:23:04.525Z,2.42
2019-03-19T21:25:32.584Z,2.50
2019-03-19T21:28:00.462Z,2.27
2019-03-19T21:30:28.151Z,2.35
2019-03-19T21:32:56.184Z,2.58
2019-03-19T21:35:24.079Z,2.60
2019-03-19T21:37:52.246Z,2.90
2019-03-19T21:40:20.026Z,3.47
2019-03-19T21:42:49.693Z,2.25
2019-03-19T21:45:20.039Z,2.77
2019-03-19T21:47:48.050Z,2.85
2019-03-19T21:50:15.877Z,2.60
2019-03-19T21:52:43.675Z,2.37
2019-03-19T21:55:14.027Z,2.77
2019-03-19T21:57:41.422Z,2.50
2019-03-19T22:00:11.776Z,2.40
2019-03-19T22:02:39.644Z,2.65
2019-03-19T22:05:07.787Z,2.62
2019-03-19T22:07:35.585Z,2.45
2019-03-19T22:10:04.447Z,2.62
2019-03-19T22:12:32.597Z,2.55
2019-03-19T22:15:00.398Z,2.65
2019-03-19T22:17:28.192Z,3.12
2019-03-19T22:19:56.037Z,5.03
2019-03-19T22:22:23.869Z,5.35
2019-03-19T22:24:51.510Z,3.90
2019-03-19T22:27:19.212Z,3.25
2019-03-19T22:29:47.262Z,2.67
2019-03-19T22:32:14.984Z,2.52
2019-03-19T22:34:42.651Z,2.80
2019-03-19T22:37:10.348Z,2.30
2019-03-19T22:39:38.040Z,2.60
2019-03-19T22:42:05.855Z,2.75
2019-03-19T22:44:33.668Z,2.45
2019-03-19T22:47:01.503Z,2.58
2019-03-19T22:49:29.301Z,2.50
2019-03-19T22:51:57.076Z,2.50
2019-03-19T22:54:24.782Z,2.05
2019-03-19T22:56:52.455Z,2.70
2019-03-19T22:59:20.456Z,2.87
2019-03-19T23:01:48.187Z,2.27
2019-03-19T23:04:26.751Z,2.40
2019-03-19T23:06:45.637Z,2.22
2019-03-19T23:09:13.293Z,2.08
2019-03-19T23:11:41.002Z,2.30
2019-03-19T23:14:08.863Z,2.27
2019-03-19T23:16:36.624Z,2.30
2019-03-19T23:19:04.498Z,2.60
2019-03-19T23:21:33.208Z,2.52
2019-03-19T23:24:00.967Z,2.85
2019-03-19T23:26:28.633Z,2.70
2019-03-19T23:28:56.323Z,2.92
2019-03-19T23:31:25.147Z,2.55
2019-03-19T23:33:53.948Z,2.83
2019-03-19T23:36:21.546Z,2.55
2019-03-19T23:38:49.160Z,2.47
2019-03-19T23:41:16.826Z,2.40
2019-03-19T23:43:44.839Z,3.12
2019-03-19T23:46:12.724Z,2.65
2019-03-19T23:48:40.443Z,2.25
2019-03-19T23:51:08.507Z,2.58
2019-03-19T23:53:36.162Z,2.15
2019-03-19T23:56:03.944Z,2.70
2019-03-19T23:58:31.669Z,2.87
